Time;durP1;ratioP1;P1;durP2;ratioP2;P2;SDS_P1;SDS_P2;PMS_P1;PMS_P2;Temp;Humidity;BMP_temperature;BMP_pressure;BME280_temperature;BME280_humidity;BME280_pressure;Samples;Min_cycle;Max_cycle;Signal;HPM_P1;HPM_P2
2023/02/07 00:02:11;;;;;;;117.50;44.40;;;;;;;;;;106823;1277;25566;-83
2023/02/07 00:05:00;;;;;;;;;;;;;;;;;;;;;
2023/02/07 00:07:50;;;;;;;131.70;47.70;;;;;;;;;;106843;1278;24203;-89
2023/02/07 00:10:17;;;;;;;124.30;46.90;;;;;;;;;;106831;1259;25318;-79
2023/02/07 00:13:06;;;;;;;135.60;48.40;;;;;;;;;;106841;1277;22529;-85
2023/02/07 00:16:06;;;;;;;;;;;;;;;;;;;;;
2023/02/07 00:19:48;;;;;;;121.10;45.50;;;;;;;;;;106806;1277;22530;-83
2023/02/07 00:22:44;;;;;;;;;;;;;;;;;;;;;
2023/02/07 00:25:23;;;;;;;114.90;42.50;;;;;;;;;;106314;1286;21733;-81
2023/02/07 00:28:38;;;;;;;108.40;40.10;;;;;;;;;;106172;1287;25390;-82
2023/02/07 00:34:49;;;;;;;;;;;;;;;;;;;;;
2023/02/07 00:38:19;;;;;;;98.90;34.90;;;;;;;;;;105817;1292;22547;-78
2023/02/07 00:41:26;;;;;;;86.20;29.40;;;;;;;;;;105766;1277;25420;-80
2023/02/07 00:44:35;;;;;;;84.20;29.50;;;;;;;;;;105649;1292;22570;-79
2023/02/07 00:47:23;;;;;;;94.60;36.70;;;;;;;;;;105657;1292;22557;-81
2023/02/07 00:50:40;;;;;;;61.20;22.00;;;;;;;;;;105814;1292;22561;-79
2023/02/07 00:53:48;;;;;;;77.50;28.40;;;;;;;;;;105710;1278;22555;-80
2023/02/07 00:56:38;;;;;;;107.20;40.60;;;;;;;;;;105833;1290;22669;-80
2023/02/07 00:59:46;;;;;;;85.50;31.10;;;;;;;;;;105897;1290;22669;-82
2023/02/07 01:03:03;;;;;;;;;;;;;;;;;;;;;
2023/02/07 01:05:59;;;;;;;;;;;;;;;;;;;;;
2023/02/07 01:08:31;;;;;;;91.00;34.20;;;;;;;;;;106286;1286;22539;-83
2023/02/07 01:11:20;;;;;;;107.30;40.20;;;;;;;;;;106599;1278;26964;-79
2023/02/07 01:14:10;;;;;;;81.60;29.10;;;;;;;;;;107150;1250;24257;-78
2023/02/07 01:16:37;;;;;;;74.70;26.60;;;;;;;;;;107088;1274;24368;-78
2023/02/07 01:19:06;;;;;;;75.40;27.40;;;;;;;;;;107114;1274;22622;-80
2023/02/07 01:21:44;;;;;;;68.20;25.90;;;;;;;;;;107176;1274;24349;-82
2023/02/07 01:24:41;;;;;;;;;;;;;;;;;;;;;
2023/02/07 01:27:11;;;;;;;81.00;27.30;;;;;;;;;;107026;1274;22531;-78
2023/02/07 01:30:01;;;;;;;74.70;25.60;;;;;;;;;;106952;1274;25443;-84
2023/02/07 01:32:51;;;;;;;73.10;25.40;;;;;;;;;;107080;1250;25405;-78
2023/02/07 01:35:58;;;;;;;71.80;24.40;;;;;;;;;;107141;1274;22570;-83
2023/02/07 01:38:28;;;;;;;58.80;21.80;;;;;;;;;;107148;1274;22530;-81
2023/02/07 01:42:19;;;;;;;55.20;19.40;;;;;;;;;;107152;1274;22554;-80
2023/02/07 01:44:44;;;;;;;58.30;21.70;;;;;;;;;;107013;1256;25230;-80
2023/02/07 01:47:31;;;;;;;57.60;21.50;;;;;;;;;;107059;1274;24259;-80
2023/02/07 01:50:34;;;;;;;56.20;21.50;;;;;;;;;;107151;1274;25332;-81
2023/02/07 01:53:52;;;;;;;;;;;;;;;;;;;;;
2023/02/07 01:56:23;;;;;;;61.00;22.20;;;;;;;;;;107120;1274;24036;-79
2023/02/07 01:59:14;;;;;;;66.80;25.30;;;;;;;;;;107194;1274;25474;-81
2023/02/07 02:01:45;;;;;;;63.30;23.40;;;;;;;;;;107190;1274;25531;-81
2023/02/07 02:04:36;;;;;;;62.10;23.20;;;;;;;;;;107050;1256;22523;-81
2023/02/07 02:10:21;;;;;;;59.20;21.00;;;;;;;;;;106733;1278;23884;-78
2023/02/07 02:16:53;;;;;;;50.10;18.20;;;;;;;;;;106971;1263;22527;-82
2023/02/07 02:19:29;;;;;;;49.60;18.40;;;;;;;;;;110657;1274;22126;-78
2023/02/07 02:22:19;;;;;;;50.40;18.80;;;;;;;;;;110628;1274;22189;-78
2023/02/07 02:25:24;;;;;;;55.10;21.30;;;;;;;;;;110748;1254;22960;-78
2023/02/07 02:28:08;;;;;;;61.10;23.40;;;;;;;;;;110624;1274;22122;-78
2023/02/07 02:31:25;;;;;;;45.30;16.80;;;;;;;;;;110597;1275;22762;-78
2023/02/07 02:33:56;;;;;;;69.30;26.80;;;;;;;;;;110614;1275;22810;-78
2023/02/07 02:36:36;;;;;;;;;;;;;;;;;;;;;
2023/02/07 02:43:54;;;;;;;82.10;31.00;;;;;;;;;;110410;1278;22155;-78
2023/02/07 02:46:34;;;;;;;81.10;29.70;;;;;;;;;;110654;1259;22150;-78
2023/02/07 02:49:24;;;;;;;83.40;29.30;;;;;;;;;;110286;1278;22874;-78
2023/02/07 02:52:11;;;;;;;76.00;28.50;;;;;;;;;;110408;1278;22180;-78
2023/02/07 02:54:49;;;;;;;70.60;25.70;;;;;;;;;;110403;1278;22391;-78
2023/02/07 02:57:51;;;;;;;62.40;23.70;;;;;;;;;;110174;1278;22238;-78
2023/02/07 03:07:41;;;;;;;74.70;26.90;;;;;;;;;;109939;1265;22181;-78
2023/02/07 03:10:18;;;;;;;71.70;26.40;;;;;;;;;;110005;1280;22838;-78
2023/02/07 03:24:33;;;;;;;80.00;25.40;;;;;;;;;;109477;1291;22170;-78
2023/02/07 03:27:05;;;;;;;78.20;25.20;;;;;;;;;;109224;1291;22987;-78
2023/02/07 03:29:56;;;;;;;69.20;25.90;;;;;;;;;;109263;1292;22397;-78
2023/02/07 03:32:37;;;;;;;70.70;25.30;;;;;;;;;;109169;1292;22893;-78
2023/02/07 03:39:09;;;;;;;61.60;20.30;;;;;;;;;;108984;1276;22136;-78
2023/02/07 03:42:08;;;;;;;56.60;20.50;;;;;;;;;;109477;1292;22188;-78
2023/02/07 03:44:35;;;;;;;75.00;26.70;;;;;;;;;;109494;1292;22176;-77
2023/02/07 03:47:17;;;;;;;88.20;31.30;;;;;;;;;;109340;1270;22405;-78
2023/02/07 03:54:25;;;;;;;92.00;33.00;;;;;;;;;;109151;1294;22243;-78
2023/02/07 03:57:33;;;;;;;94.10;34.00;;;;;;;;;;109374;1286;22150;-77
2023/02/07 04:07:38;;;;;;;86.30;31.20;;;;;;;;;;109505;1290;22232;-78
2023/02/07 04:17:09;;;;;;;73.30;27.70;;;;;;;;;;110046;1276;22152;-77
2023/02/07 04:19:56;;;;;;;73.50;26.30;;;;;;;;;;110724;1259;22170;-77
2023/02/07 04:22:23;;;;;;;67.00;25.60;;;;;;;;;;110630;1276;22900;-78
2023/02/07 04:24:49;;;;;;;72.40;26.00;;;;;;;;;;110523;1276;22107;-78
2023/02/07 04:31:22;;;;;;;64.80;24.10;;;;;;;;;;110432;1260;22905;-77
2023/02/07 04:33:49;;;;;;;77.30;28.80;;;;;;;;;;110238;1276;22920;-78
2023/02/07 04:36:21;;;;;;;81.50;31.00;;;;;;;;;;110241;1279;22188;-77
2023/02/07 04:38:51;;;;;;;76.00;28.50;;;;;;;;;;110256;1279;22951;-78
2023/02/07 04:48:23;;;;;;;76.40;28.60;;;;;;;;;;109954;1284;22454;-77
2023/02/07 04:51:10;;;;;;;;;;;;;;;;;;;;;
2023/02/07 04:53:45;;;;;;;69.80;25.00;;;;;;;;;;109961;1284;22150;-77
2023/02/07 04:56:12;;;;;;;63.90;23.30;;;;;;;;;;109912;1284;22837;-77
2023/02/07 04:59:34;;;;;;;;;;;;;;;;;;;;;
2023/02/07 05:13:08;;;;;;;54.40;21.40;;;;;;;;;;108802;1279;22195;-77
2023/02/07 05:15:48;;;;;;;;;;;;;;;;;;;;;
2023/02/07 05:18:43;;;;;;;40.60;14.40;;;;;;;;;;108966;1295;22391;-77
2023/02/07 05:28:15;;;;;;;63.10;23.90;;;;;;;;;;109717;1279;22890;-77
2023/02/07 05:34:32;;;;;;;73.20;26.50;;;;;;;;;;110401;1260;22137;-78
2023/02/07 05:37:19;;;;;;;71.00;28.80;;;;;;;;;;110239;1280;22097;-77
2023/02/07 05:43:44;;;;;;;80.20;30.10;;;;;;;;;;109752;1267;22074;-77
2023/02/07 05:46:11;;;;;;;88.90;35.00;;;;;;;;;;109785;1287;22153;-77
2023/02/07 05:48:40;;;;;;;101.70;33.60;;;;;;;;;;109741;1285;22059;-77
2023/02/07 05:51:07;;;;;;;110.20;35.40;;;;;;;;;;109773;1287;22151;-78
2023/02/07 06:00:39;;;;;;;138.50;42.40;;;;;;;;;;109459;1292;22185;-84
2023/02/07 06:03:09;;;;;;;189.00;49.70;;;;;;;;;;109221;1269;22212;-77
2023/02/07 06:05:36;;;;;;;163.80;48.00;;;;;;;;;;109452;1292;22260;-77
2023/02/07 06:08:22;;;;;;;182.90;53.10;;;;;;;;;;109264;1292;22190;-77
2023/02/07 06:10:51;;;;;;;184.60;57.20;;;;;;;;;;109481;1292;22179;-77
2023/02/07 06:13:51;;;;;;;;;;;;;;;;;;;;;
2023/02/07 06:20:28;;;;;;;185.40;53.00;;;;;;;;;;109140;1292;22140;-77
2023/02/07 06:22:55;;;;;;;175.60;54.80;;;;;;;;;;109285;1293;21877;-78
2023/02/07 06:25:58;;;;;;;;;;;;;;;;;;;;;
2023/02/07 06:32:32;;;;;;;160.90;43.60;;;;;;;;;;108830;1297;22225;-78
2023/02/07 06:35:00;;;;;;;141.40;40.30;;;;;;;;;;109076;1276;22183;-77
2023/02/07 06:37:27;;;;;;;165.30;45.70;;;;;;;;;;109310;1293;23111;-77
2023/02/07 06:39:54;;;;;;;159.50;44.40;;;;;;;;;;109207;1293;22217;-77
2023/02/07 06:42:22;;;;;;;179.30;43.00;;;;;;;;;;109151;1293;22229;-77
2023/02/07 06:45:33;;;;;;;199.50;48.80;;;;;;;;;;108743;1279;22274;-77
2023/02/07 06:48:20;;;;;;;217.50;54.70;;;;;;;;;;108773;1297;22235;-77
2023/02/07 06:50:50;;;;;;;187.90;46.50;;;;;;;;;;108786;1297;21780;-77
2023/02/07 06:53:17;;;;;;;184.90;44.90;;;;;;;;;;108807;1292;22176;-77
2023/02/07 07:03:35;;;;;;;124.70;32.60;;;;;;;;;;108398;1281;22204;-77
2023/02/07 07:06:24;;;;;;;137.40;36.50;;;;;;;;;;110409;1262;22133;-78
2023/02/07 07:09:12;;;;;;;106.30;31.90;;;;;;;;;;110278;1279;22143;-76
2023/02/07 07:11:43;;;;;;;126.40;37.40;;;;;;;;;;110095;1279;22008;-76
2023/02/07 07:14:40;;;;;;;;;;;;;;;;;;;;;
2023/02/07 07:20:22;;;;;;;155.20;47.80;;;;;;;;;;103800;1295;545049;-83
2023/02/07 07:23:03;;;;;;;166.30;44.00;;;;;;;;;;106309;1287;25357;-79
2023/02/07 07:25:42;;;;;;;161.60;49.30;;;;;;;;;;106307;1287;25349;-79
2023/02/07 07:28:40;;;;;;;;;;;;;;;;;;;;;
2023/02/07 07:31:30;;;;;;;178.60;53.80;;;;;;;;;;105999;1270;23109;-77
2023/02/07 07:33:57;;;;;;;155.80;50.90;;;;;;;;;;102347;1286;5086951;-79
2023/02/07 07:36:24;;;;;;;134.90;44.20;;;;;;;;;;105929;1286;25474;-78
2023/02/07 07:38:53;;;;;;;121.90;42.90;;;;;;;;;;106170;1286;22542;-81
2023/02/07 07:41:43;;;;;;;114.00;42.90;;;;;;;;;;106276;1286;25290;-79
2023/02/07 07:44:14;;;;;;;131.10;47.50;;;;;;;;;;106230;1286;22587;-79
2023/02/07 07:47:00;;;;;;;;;;;;;;;;;;;;;
2023/02/07 07:49:57;;;;;;;;;;;;;;;;;;;;;
2023/02/07 07:52:44;;;;;;;209.30;70.90;;;;;;;;;;106378;1286;24309;-79
2023/02/07 07:55:41;;;;;;;225.90;68.20;;;;;;;;;;106313;1286;25335;-77
2023/02/07 07:58:12;;;;;;;222.60;73.60;;;;;;;;;;106117;1286;22543;-78
2023/02/07 08:00:42;;;;;;;238.80;77.00;;;;;;;;;;106006;1269;25640;-82
2023/02/07 08:03:23;;;;;;;242.00;83.90;;;;;;;;;;106194;1286;22577;-82
2023/02/07 08:09:20;;;;;;;216.90;72.60;;;;;;;;;;105537;1297;22694;-79
2023/02/07 08:11:50;;;;;;;221.10;73.60;;;;;;;;;;105190;1277;24220;-78
2023/02/07 08:14:17;;;;;;;212.30;74.70;;;;;;;;;;105592;1297;22514;-78
2023/02/07 08:17:14;;;;;;;;;;;;;;;;;;;;;
2023/02/07 08:19:44;;;;;;;201.80;72.10;;;;;;;;;;106287;1285;24201;-79
2023/02/07 08:22:52;;;;;;;174.70;64.10;;;;;;;;;;106088;1285;25337;-80
2023/02/07 08:25:21;;;;;;;172.20;66.40;;;;;;;;;;106072;1285;24274;-78
2023/02/07 08:28:09;;;;;;;182.50;62.90;;;;;;;;;;105837;1290;22545;-78
2023/02/07 08:30:38;;;;;;;181.80;63.30;;;;;;;;;;105816;1280;25447;-78
2023/02/07 08:33:05;;;;;;;163.20;56.30;;;;;;;;;;105592;1290;24392;-80
2023/02/07 08:35:35;;;;;;;153.30;52.60;;;;;;;;;;105832;1290;22530;-81
2023/02/07 08:38:02;;;;;;;166.60;54.60;;;;;;;;;;105941;1290;22570;-79
2023/02/07 08:40:45;;;;;;;226.00;72.20;;;;;;;;;;106025;1270;22789;-81
2023/02/07 08:43:13;;;;;;;157.00;54.80;;;;;;;;;;106359;1286;25327;-80
2023/02/07 08:46:00;;;;;;;148.40;53.60;;;;;;;;;;106441;1280;25236;-82
2023/02/07 08:48:27;;;;;;;143.00;48.10;;;;;;;;;;106685;1280;22951;-81
2023/02/07 08:50:57;;;;;;;164.70;52.10;;;;;;;;;;106582;1258;22539;-79
2023/02/07 08:53:47;;;;;;;127.00;44.20;;;;;;;;;;106721;1280;22540;-77
2023/02/07 08:56:40;;;;;;;95.90;36.20;;;;;;;;;;106654;1281;23017;-78
2023/02/07 08:59:09;;;;;;;87.40;32.50;;;;;;;;;;106729;1280;22671;-80
2023/02/07 09:02:16;;;;;;;81.70;30.90;;;;;;;;;;106673;1270;22471;-80
2023/02/07 09:05:29;;;;;;;66.50;26.90;;;;;;;;;;106709;1275;22531;-78
2023/02/07 09:07:56;;;;;;;62.40;23.90;;;;;;;;;;106997;1275;22488;-78
2023/02/07 09:10:26;;;;;;;70.90;26.80;;;;;;;;;;107061;1275;22533;-77
2023/02/07 09:13:33;;;;;;;62.30;23.90;;;;;;;;;;107067;1252;24187;-78
2023/02/07 09:16:14;;;;;;;55.90;20.60;;;;;;;;;;107011;1275;24237;-82
2023/02/07 09:18:43;;;;;;;53.70;20.40;;;;;;;;;;107086;1254;22532;-81
2023/02/07 09:21:36;;;;;;;48.80;19.40;;;;;;;;;;107061;1264;24224;-77
2023/02/07 09:24:06;;;;;;;53.20;20.90;;;;;;;;;;107051;1275;25343;-79
2023/02/07 09:26:37;;;;;;;57.00;23.10;;;;;;;;;;107071;1275;24242;-77
2023/02/07 09:29:25;;;;;;;58.10;24.30;;;;;;;;;;107000;1275;22550;-79
2023/02/07 09:31:54;;;;;;;53.90;23.50;;;;;;;;;;107080;1256;22581;-78
2023/02/07 09:34:41;;;;;;;50.70;22.30;;;;;;;;;;107014;1275;25351;-81
2023/02/07 09:37:11;;;;;;;55.50;21.70;;;;;;;;;;107065;1275;25230;-79
2023/02/07 09:39:43;;;;;;;58.30;23.80;;;;;;;;;;106984;1275;22675;-79
2023/02/07 09:42:32;;;;;;;;;;;;;;;;;;;;;
2023/02/07 09:45:06;;;;;;;81.20;34.60;;;;;;;;;;107071;1275;25275;-82
2023/02/07 09:47:41;;;;;;;61.00;24.50;;;;;;;;;;107001;1275;22654;-80
2023/02/07 09:50:14;;;;;;;53.10;21.00;;;;;;;;;;107005;1275;24273;-83
2023/02/07 09:53:14;;;;;;;;;;;;;;;;;;;;;
2023/02/07 09:56:02;;;;;;;44.20;18.20;;;;;;;;;;106997;1275;22544;-82
2023/02/07 09:58:35;;;;;;;41.90;16.30;;;;;;;;;;107062;1275;22550;-82
2023/02/07 10:01:10;;;;;;;44.60;18.80;;;;;;;;;;106996;1275;21702;-77
2023/02/07 10:04:49;;;;;;;52.10;20.90;;;;;;;;;;106977;1275;26494;-82
2023/02/07 10:07:08;;;;;;;38.50;15.60;;;;;;;;;;106645;1281;24664;-83
2023/02/07 10:09:39;;;;;;;33.20;11.70;;;;;;;;;;106608;1281;22549;-80
2023/02/07 10:12:44;;;;;;;31.70;13.50;;;;;;;;;;106712;1281;24195;-77
2023/02/07 10:15:30;;;;;;;31.90;13.30;;;;;;;;;;106324;1270;24416;-83
2023/02/07 10:18:43;;;;;;;26.80;12.10;;;;;;;;;;106350;1276;24363;-84
2023/02/07 10:24:39;;;;;;;32.70;14.20;;;;;;;;;;106371;1276;24340;-79
2023/02/07 10:27:26;;;;;;;53.60;21.10;;;;;;;;;;106393;1286;24248;-79
2023/02/07 10:30:21;;;;;;;;;;;;;;;;;;;;;
2023/02/07 10:33:43;;;;;;;28.70;12.30;;;;;;;;;;106333;1286;24372;-82
2023/02/07 10:36:13;;;;;;;34.30;14.80;;;;;;;;;;105770;1274;23022;-77
2023/02/07 10:39:05;;;;;;;29.80;12.90;;;;;;;;;;105820;1291;23735;-81
2023/02/07 10:41:56;;;;;;;30.60;13.70;;;;;;;;;;105913;1291;22665;-80
2023/02/07 10:44:53;;;;;;;31.80;13.30;;;;;;;;;;106055;1287;22599;-79
2023/02/07 10:47:25;;;;;;;30.90;13.70;;;;;;;;;;106104;1287;24349;-81
2023/02/07 10:50:34;;;;;;;31.10;13.50;;;;;;;;;;106349;1281;22540;-82
2023/02/07 10:53:09;;;;;;;24.30;10.00;;;;;;;;;;106345;1286;22543;-80
2023/02/07 10:55:47;;;;;;;29.90;12.30;;;;;;;;;;106347;1271;25416;-80
2023/02/07 10:58:35;;;;;;;;;;;;;;;;;;;;;
2023/02/07 11:01:29;;;;;;;;;;;;;;;;;;;;;
2023/02/07 11:04:19;;;;;;;38.80;16.40;;;;;;;;;;106397;1286;24248;-83
2023/02/07 11:07:21;;;;;;;33.90;13.50;;;;;;;;;;106328;1286;25281;-77
2023/02/07 11:10:34;;;;;;;26.70;11.50;;;;;;;;;;106284;1286;25259;-79
2023/02/07 11:12:47;;;;;;;27.40;12.30;;;;;;;;;;106284;1280;22552;-79
2023/02/07 11:15:28;;;;;;;35.00;14.10;;;;;;;;;;106736;1263;22536;-80
2023/02/07 11:18:51;;;;;;;43.70;15.70;;;;;;;;;;106818;1280;25599;-80
2023/02/07 11:21:29;;;;;;;31.90;14.40;;;;;;;;;;106734;1280;22578;-79
2023/02/07 11:24:07;;;;;;;32.90;16.10;;;;;;;;;;106645;1281;22876;-83
2023/02/07 11:26:38;;;;;;;41.40;15.90;;;;;;;;;;106547;1281;24280;-79
2023/02/07 11:29:36;;;;;;;35.80;14.90;;;;;;;;;;106669;1275;22676;-82
2023/02/07 11:32:08;;;;;;;30.10;13.60;;;;;;;;;;107113;1275;22987;-83
2023/02/07 11:34:51;;;;;;;33.80;14.80;;;;;;;;;;107037;1275;22536;-80
2023/02/07 11:37:24;;;;;;;33.20;14.40;;;;;;;;;;107053;1254;22657;-82
2023/02/07 11:40:16;;;;;;;33.70;13.90;;;;;;;;;;107094;1275;26477;-84
2023/02/07 11:43:16;;;;;;;33.20;15.10;;;;;;;;;;107051;1275;24190;-77
2023/02/07 11:46:05;;;;;;;31.00;14.10;;;;;;;;;;106978;1254;24227;-84
2023/02/07 11:48:48;;;;;;;30.20;14.20;;;;;;;;;;107095;1275;25325;-77
2023/02/07 11:51:20;;;;;;;37.80;15.90;;;;;;;;;;106808;1275;24224;-81
2023/02/07 11:53:53;;;;;;;39.70;17.20;;;;;;;;;;107090;1275;25280;-80
2023/02/07 11:56:33;;;;;;;33.50;14.90;;;;;;;;;;107120;1267;24218;-79
2023/02/07 11:59:02;;;;;;;34.90;15.40;;;;;;;;;;107009;1275;25359;-80
2023/02/07 12:01:44;;;;;;;;;;;;;;;;;;;;;
2023/02/07 12:04:26;;;;;;;38.70;17.30;;;;;;;;;;107001;1275;25344;-82
2023/02/07 12:06:56;;;;;;;36.40;18.50;;;;;;;;;;107054;1254;22530;-81
2023/02/07 12:09:23;;;;;;;39.00;17.70;;;;;;;;;;107068;1275;24373;-81
2023/02/07 12:11:54;;;;;;;37.00;17.70;;;;;;;;;;106988;1275;25233;-83
2023/02/07 12:14:31;;;;;;;32.30;16.20;;;;;;;;;;107066;1275;24190;-78
2023/02/07 12:17:13;;;;;;;37.70;18.40;;;;;;;;;;106994;1275;23375;-79
2023/02/07 12:20:03;;;;;;;37.60;18.00;;;;;;;;;;107033;1275;24264;-83
2023/02/07 12:23:02;;;;;;;35.90;16.10;;;;;;;;;;107090;1275;24256;-81
2023/02/07 12:25:35;;;;;;;36.20;17.40;;;;;;;;;;106462;1281;22534;-79
2023/02/07 12:28:10;;;;;;;35.20;17.80;;;;;;;;;;106693;1262;25303;-82
2023/02/07 12:30:46;;;;;;;34.70;17.40;;;;;;;;;;106518;1274;25346;-81
2023/02/07 12:33:40;;;;;;;38.40;18.60;;;;;;;;;;106504;1273;23464;-79
2023/02/07 12:36:28;;;;;;;38.60;18.50;;;;;;;;;;106609;1273;25468;-80
2023/02/07 12:39:04;;;;;;;33.40;16.40;;;;;;;;;;106781;1261;23101;-77
2023/02/07 12:41:44;;;;;;;35.00;18.20;;;;;;;;;;106536;1275;24323;-78
2023/02/07 12:44:20;;;;;;;37.30;17.80;;;;;;;;;;106628;1273;25334;-78
2023/02/07 12:46:54;;;;;;;37.20;16.90;;;;;;;;;;106484;1276;22523;-78
2023/02/07 12:49:45;;;;;;;32.30;15.10;;;;;;;;;;106595;1264;24407;-79
2023/02/07 12:52:23;;;;;;;34.10;15.10;;;;;;;;;;106422;1273;22554;-79
2023/02/07 12:54:53;;;;;;;33.10;15.00;;;;;;;;;;106448;1274;25325;-79
2023/02/07 12:57:33;;;;;;;31.90;14.50;;;;;;;;;;106645;1257;22553;-77
2023/02/07 13:00:09;;;;;;;30.60;14.40;;;;;;;;;;106707;1273;23918;-78
2023/02/07 13:02:43;;;;;;;36.10;14.70;;;;;;;;;;106955;1269;25452;-80
2023/02/07 13:05:23;;;;;;;36.60;14.20;;;;;;;;;;107111;1272;24545;-77
2023/02/07 13:08:18;;;;;;;;;;;;;;;;;;;;;
2023/02/07 13:11:01;;;;;;;27.90;13.40;;;;;;;;;;107094;1267;22556;-79
2023/02/07 13:13:37;;;;;;;29.70;14.20;;;;;;;;;;107312;1263;25359;-81
2023/02/07 13:16:12;;;;;;;28.30;13.30;;;;;;;;;;106927;1267;22534;-78
2023/02/07 13:19:01;;;;;;;28.20;12.80;;;;;;;;;;107023;1257;22754;-81
2023/02/07 13:21:39;;;;;;;26.00;11.90;;;;;;;;;;106957;1269;22613;-78
2023/02/07 13:24:15;;;;;;;30.30;13.40;;;;;;;;;;106934;1265;22526;-78
2023/02/07 13:27:04;;;;;;;27.10;11.60;;;;;;;;;;106972;1267;25424;-81
2023/02/07 13:29:37;;;;;;;26.80;12.30;;;;;;;;;;106917;1253;22533;-79
2023/02/07 13:32:11;;;;;;;25.20;12.90;;;;;;;;;;106899;1273;22562;-78
2023/02/07 13:35:11;;;;;;;30.90;13.30;;;;;;;;;;106892;1268;24225;-81
2023/02/07 13:38:06;;;;;;;27.10;13.30;;;;;;;;;;107046;1273;22527;-80
2023/02/07 13:40:55;;;;;;;26.30;12.90;;;;;;;;;;107211;1267;24361;-78
2023/02/07 13:43:49;;;;;;;27.90;12.10;;;;;;;;;;107139;1268;22550;-77
2023/02/07 13:46:44;;;;;;;26.90;12.20;;;;;;;;;;107146;1269;27473;-80
2023/02/07 13:49:21;;;;;;;28.10;13.60;;;;;;;;;;107116;1256;22533;-82
2023/02/07 13:52:00;;;;;;;32.20;14.20;;;;;;;;;;106957;1267;24300;-81
2023/02/07 13:54:40;;;;;;;30.60;14.00;;;;;;;;;;107173;1270;22530;-79
2023/02/07 14:00:18;;;;;;;27.00;12.40;;;;;;;;;;107077;1256;22530;-80
2023/02/07 14:03:08;;;;;;;27.80;12.70;;;;;;;;;;107036;1275;25325;-78
2023/02/07 14:05:54;;;;;;;29.30;12.20;;;;;;;;;;107168;1269;22610;-80
2023/02/07 14:08:23;;;;;;;31.40;13.20;;;;;;;;;;106894;1276;25435;-82
2023/02/07 14:10:53;;;;;;;29.60;14.10;;;;;;;;;;106971;1258;25347;-82
2023/02/07 14:13:42;;;;;;;29.00;13.90;;;;;;;;;;106955;1273;22537;-82
2023/02/07 14:16:39;;;;;;;26.40;12.40;;;;;;;;;;107119;1275;22483;-83
2023/02/07 14:19:12;;;;;;;32.40;14.40;;;;;;;;;;107094;1275;22764;-80
2023/02/07 14:21:42;;;;;;;31.60;14.70;;;;;;;;;;106880;1254;24202;-79
2023/02/07 14:24:12;;;;;;;23.90;12.20;;;;;;;;;;106921;1275;23043;-80
2023/02/07 14:26:39;;;;;;;28.70;13.40;;;;;;;;;;106985;1269;22546;-77
2023/02/07 14:29:21;;;;;;;39.90;17.40;;;;;;;;;;107064;1275;24349;-79
2023/02/07 14:31:49;;;;;;;39.70;17.20;;;;;;;;;;110337;1256;22001;-77
2023/02/07 14:34:40;;;;;;;;;;;;;;;;;;;;;
2023/02/07 14:37:36;;;;;;;;;;;;;;;;;;;;;
2023/02/07 14:40:22;;;;;;;29.80;13.50;;;;;;;;;;110688;1253;22268;-77
2023/02/07 14:43:01;;;;;;;30.80;13.40;;;;;;;;;;110562;1275;23164;-77
2023/02/07 14:45:30;;;;;;;31.80;13.80;;;;;;;;;;110533;1275;22757;-77
2023/02/07 14:48:00;;;;;;;32.10;12.60;;;;;;;;;;110612;1275;22121;-77
2023/02/07 14:50:32;;;;;;;28.40;12.30;;;;;;;;;;110652;1253;22838;-77
2023/02/07 14:53:03;;;;;;;33.00;14.30;;;;;;;;;;110439;1275;22771;-77
2023/02/07 14:55:33;;;;;;;35.60;15.70;;;;;;;;;;110460;1275;22215;-78
2023/02/07 14:58:05;;;;;;;31.90;14.50;;;;;;;;;;110625;1275;22129;-77
2023/02/07 15:00:39;;;;;;;33.00;14.70;;;;;;;;;;110435;1253;22634;-76
2023/02/07 15:03:16;;;;;;;33.60;14.70;;;;;;;;;;110666;1275;22096;-77
2023/02/07 15:06:14;;;;;;;33.80;14.20;;;;;;;;;;110405;1271;22864;-77
2023/02/07 15:08:53;;;;;;;44.90;17.50;;;;;;;;;;110600;1275;22106;-77
2023/02/07 15:11:25;;;;;;;37.40;15.10;;;;;;;;;;110580;1253;22189;-77
2023/02/07 15:13:57;;;;;;;35.00;14.30;;;;;;;;;;110627;1275;22742;-77
2023/02/07 15:17:06;;;;;;;38.40;14.80;;;;;;;;;;110605;1275;22411;-77
2023/02/07 15:19:34;;;;;;;40.10;14.20;;;;;;;;;;110559;1275;22365;-77
2023/02/07 15:22:01;;;;;;;34.80;14.50;;;;;;;;;;110702;1253;22417;-76
2023/02/07 15:24:30;;;;;;;40.10;15.30;;;;;;;;;;110595;1275;22971;-76
2023/02/07 15:26:58;;;;;;;43.10;15.70;;;;;;;;;;110543;1275;22199;-76
2023/02/07 15:29:26;;;;;;;48.90;15.60;;;;;;;;;;110564;1275;22941;-76
2023/02/07 15:31:53;;;;;;;39.60;15.10;;;;;;;;;;110580;1253;22203;-77
2023/02/07 15:34:22;;;;;;;51.20;17.20;;;;;;;;;;110497;1275;22139;-77
2023/02/07 15:36:50;;;;;;;47.30;17.50;;;;;;;;;;110567;1275;22087;-76
2023/02/07 15:39:18;;;;;;;51.00;17.60;;;;;;;;;;110507;1275;22120;-77
2023/02/07 15:41:46;;;;;;;47.80;15.20;;;;;;;;;;110518;1256;22843;-76
2023/02/07 15:44:21;;;;;;;38.90;15.30;;;;;;;;;;110596;1275;21995;-78
2023/02/07 15:46:52;;;;;;;39.60;16.10;;;;;;;;;;110463;1276;22742;-78
2023/02/07 15:49:27;;;;;;;39.00;15.20;;;;;;;;;;110479;1275;22134;-78
2023/02/07 15:51:58;;;;;;;42.50;14.70;;;;;;;;;;110641;1253;22198;-77
2023/02/07 15:54:25;;;;;;;36.70;13.90;;;;;;;;;;110592;1275;22172;-78
2023/02/07 15:56:57;;;;;;;34.30;13.40;;;;;;;;;;110470;1275;22114;-77
2023/02/07 15:59:26;;;;;;;38.90;13.60;;;;;;;;;;110446;1275;22133;-76
2023/02/07 16:01:55;;;;;;;33.50;13.90;;;;;;;;;;110664;1256;22148;-76
2023/02/07 16:04:23;;;;;;;34.70;13.90;;;;;;;;;;110571;1275;22896;-77
2023/02/07 16:06:53;;;;;;;33.50;12.70;;;;;;;;;;110517;1275;22100;-76
2023/02/07 16:09:58;;;;;;;32.20;12.70;;;;;;;;;;110498;1275;22021;-76
2023/02/07 16:12:31;;;;;;;34.60;12.50;;;;;;;;;;110093;1260;22364;-77
2023/02/07 16:15:43;;;;;;;30.40;13.00;;;;;;;;;;110030;1281;22175;-77
2023/02/07 16:18:31;;;;;;;30.20;11.40;;;;;;;;;;109660;1288;23115;-78
2023/02/07 16:20:58;;;;;;;30.60;12.90;;;;;;;;;;109652;1289;23012;-77
2023/02/07 16:23:26;;;;;;;35.80;14.10;;;;;;;;;;109689;1266;22194;-77
2023/02/07 16:25:53;;;;;;;43.00;14.10;;;;;;;;;;109566;1289;22885;-77
2023/02/07 16:28:28;;;;;;;50.60;18.20;;;;;;;;;;109574;1289;22984;-76
2023/02/07 16:30:56;;;;;;;97.90;27.20;;;;;;;;;;109374;1289;22196;-76
2023/02/07 16:33:23;;;;;;;109.30;28.20;;;;;;;;;;109630;1267;22222;-77
2023/02/07 16:36:01;;;;;;;138.30;37.80;;;;;;;;;;109660;1289;23466;-76
2023/02/07 16:38:28;;;;;;;157.50;40.30;;;;;;;;;;109662;1283;22186;-77
2023/02/07 16:41:01;;;;;;;147.60;40.60;;;;;;;;;;109642;1286;22207;-77
2023/02/07 16:43:32;;;;;;;119.60;35.30;;;;;;;;;;109688;1269;22192;-77
2023/02/07 16:46:03;;;;;;;114.30;33.90;;;;;;;;;;109660;1285;22227;-76
2023/02/07 16:48:30;;;;;;;106.00;32.20;;;;;;;;;;109855;1285;22250;-76
2023/02/07 16:51:05;;;;;;;88.50;29.40;;;;;;;;;;109801;1285;22136;-77
2023/02/07 16:53:32;;;;;;;73.10;22.70;;;;;;;;;;110313;1259;22105;-76
2023/02/07 16:56:01;;;;;;;60.80;22.10;;;;;;;;;;110475;1276;22074;-76
2023/02/07 16:58:30;;;;;;;45.50;17.80;;;;;;;;;;110469;1276;22743;-76
2023/02/07 17:00:57;;;;;;;44.10;18.10;;;;;;;;;;110213;1276;22111;-76
2023/02/07 17:03:24;;;;;;;73.00;23.70;;;;;;;;;;110621;1256;22847;-77
2023/02/07 17:12:59;;;;;;;87.10;28.10;;;;;;;;;;110086;1257;22956;-77
2023/02/07 17:15:29;;;;;;;97.70;34.80;;;;;;;;;;110010;1281;22212;-76
2023/02/07 17:17:56;;;;;;;76.50;28.10;;;;;;;;;;110016;1281;22143;-77
2023/02/07 17:20:26;;;;;;;106.00;34.40;;;;;;;;;;110077;1281;22152;-76
2023/02/07 17:22:54;;;;;;;97.60;34.70;;;;;;;;;;110082;1281;22285;-77
2023/02/07 17:25:22;;;;;;;95.70;33.60;;;;;;;;;;110413;1263;22902;-76
2023/02/07 17:27:49;;;;;;;94.70;32.40;;;;;;;;;;110006;1282;22105;-75
2023/02/07 17:30:18;;;;;;;112.80;39.80;;;;;;;;;;109986;1282;22927;-76
2023/02/07 17:32:45;;;;;;;113.40;38.10;;;;;;;;;;109995;1282;21995;-75
2023/02/07 17:35:12;;;;;;;114.10;38.00;;;;;;;;;;110043;1263;22897;-75
2023/02/07 17:37:39;;;;;;;113.00;39.30;;;;;;;;;;110003;1283;22148;-76
2023/02/07 17:40:25;;;;;;;127.70;42.40;;;;;;;;;;110278;1278;22145;-76
2023/02/07 17:42:53;;;;;;;108.50;34.20;;;;;;;;;;110349;1278;22755;-76
2023/02/07 17:45:19;;;;;;;108.90;35.80;;;;;;;;;;110498;1259;22134;-77
2023/02/07 17:47:47;;;;;;;104.50;36.10;;;;;;;;;;110209;1278;22165;-76
2023/02/07 17:50:22;;;;;;;103.80;35.20;;;;;;;;;;110208;1278;22122;-77
2023/02/07 17:52:49;;;;;;;119.00;39.90;;;;;;;;;;110225;1278;22133;-77
2023/02/07 17:55:16;;;;;;;124.90;43.20;;;;;;;;;;110492;1260;22023;-76
2023/02/07 17:57:43;;;;;;;121.00;42.20;;;;;;;;;;110375;1278;22393;-77
2023/02/07 18:00:23;;;;;;;134.50;42.50;;;;;;;;;;110170;1278;22203;-78
2023/02/07 18:02:53;;;;;;;138.30;42.20;;;;;;;;;;110218;1278;22320;-77
2023/02/07 18:05:20;;;;;;;130.30;40.80;;;;;;;;;;110419;1259;22126;-77